Time,TemperatureF,DewpointF,PressureIn,WindDirection,WindDirectionDegrees,WindSpeedMPH,WindSpeedGustMPH,Humidity,HourlyPrecipIn,Conditions,Clouds,dailyrainin,SolarRadiationWatts/m^2,SoftwareType,DateUTC
2013-09-11 00:24:00,64.0,63.0,-100.00,South,187,0.0,4.0,98,0.00,,,0.56,0.000000,,2013-09-11 04:24:00,
2013-09-11 00:33:00,64.0,63.0,-100.00,South,187,0.0,4.0,98,0.00,,,0.56,0.000000,,2013-09-11 04:33:00,
2013-09-11 00:44:00,64.0,63.0,-100.00,South,187,0.0,4.0,98,0.00,,,0.56,0.000000,,2013-09-11 04:44:00,
2013-09-11 00:54:00,64.0,63.0,-100.00,South,187,0.0,4.0,98,0.00,,,0.56,0.000000,,2013-09-11 04:54:00,
2013-09-11 01:03:00,64.0,63.0,-100.00,South,187,0.0,4.0,98,0.00,,,0.56,0.000000,,2013-09-11 05:03:00,
2013-09-11 01:23:00,64.0,64.0,-100.00,SSW,203,0.0,3.0,99,0.00,,,0.50,0.000000,,2013-09-11 05:23:00,
2013-09-11 01:34:00,64.0,64.0,-100.00,SSW,203,0.0,3.0,99,0.00,,,0.50,0.000000,,2013-09-11 05:34:00,
2013-09-11 01:43:00,64.0,64.0,-100.00,SSW,203,0.0,3.0,99,0.00,,,0.50,0.000000,,2013-09-11 05:43:00,
2013-09-11 01:53:00,64.0,64.0,-100.00,SSW,203,0.0,3.0,99,0.00,,,0.50,0.000000,,2013-09-11 05:53:00,
2013-09-11 02:02:00,64.0,64.0,-100.00,SSW,203,0.0,3.0,99,0.00,,,0.50,0.000000,,2013-09-11 06:02:00,
2013-09-11 02:22:00,63.0,62.0,-100.00,SW,220,2.0,5.0,98,0.00,,,0.49,0.000000,,2013-09-11 06:22:00,
2013-09-11 02:33:00,63.0,62.0,-100.00,SW,220,2.0,5.0,98,0.00,,,0.49,0.000000,,2013-09-11 06:33:00,
2013-09-11 02:42:00,63.0,62.0,-100.00,SW,220,2.0,5.0,98,0.00,,,0.49,0.000000,,2013-09-11 06:42:00,
2013-09-11 02:52:00,63.0,62.0,-100.00,SW,220,2.0,5.0,98,0.00,,,0.49,0.000000,,2013-09-11 06:52:00,
2013-09-11 03:02:00,63.0,62.0,-100.00,SW,220,2.0,5.0,98,0.00,,,0.49,0.000000,,2013-09-11 07:02:00,
2013-09-11 03:24:00,63.0,63.0,-100.00,SW,221,5.0,7.0,99,0.00,,,0.49,0.000000,,2013-09-11 07:24:00,
2013-09-11 03:32:00,63.0,63.0,-100.00,SW,221,5.0,7.0,99,0.00,,,0.49,0.000000,,2013-09-11 07:32:00,
2013-09-11 03:42:00,63.0,63.0,-100.00,SW,221,5.0,7.0,99,0.00,,,0.49,0.000000,,2013-09-11 07:42:00,
2013-09-11 03:53:00,63.0,63.0,-100.00,SW,221,5.0,7.0,99,0.00,,,0.49,0.000000,,2013-09-11 07:53:00,
2013-09-11 04:02:00,63.0,63.0,-100.00,SW,221,5.0,7.0,99,0.00,,,0.49,0.000000,,2013-09-11 08:02:00,
2013-09-11 04:22:00,63.0,63.0,-100.00,SW,219,6.0,9.0,99,0.00,,,0.49,0.000000,,2013-09-11 08:22:00,
2013-09-11 04:32:00,63.0,63.0,-100.00,SW,219,6.0,9.0,99,0.00,,,0.49,0.000000,,2013-09-11 08:32:00,
2013-09-11 04:42:00,63.0,63.0,-100.00,SW,219,6.0,9.0,99,0.00,,,0.49,0.000000,,2013-09-11 08:42:00,
2013-09-11 04:52:00,63.0,63.0,-100.00,SW,219,6.0,9.0,99,0.00,,,0.49,0.000000,,2013-09-11 08:52:00,
2013-09-11 05:02:00,63.0,63.0,-100.00,SW,219,6.0,9.0,99,0.00,,,0.49,0.000000,,2013-09-11 09:02:00,
2013-09-11 05:22:00,64.0,64.0,-100.00,SW,226,8.0,12.0,100,0.01,,,0.50,0.000000,,2013-09-11 09:22:00,
2013-09-11 05:33:00,64.0,64.0,-100.00,SW,226,8.0,12.0,100,0.01,,,0.50,0.000000,,2013-09-11 09:33:00,
2013-09-11 05:43:00,64.0,64.0,-100.00,SW,226,8.0,12.0,100,0.01,,,0.50,0.000000,,2013-09-11 09:43:00,
2013-09-11 05:53:00,64.0,64.0,-100.00,SW,226,8.0,12.0,100,0.01,,,0.50,0.000000,,2013-09-11 09:53:00,
2013-09-11 06:03:00,64.0,64.0,-100.00,SW,226,8.0,12.0,100,0.01,,,0.50,0.000000,,2013-09-11 10:03:00,
2013-09-11 06:23:00,64.0,64.0,-100.00,SW,236,6.0,11.0,100,0.00,,,0.50,0.000000,,2013-09-11 10:23:00,
2013-09-11 06:33:00,64.0,64.0,-100.00,SW,236,6.0,11.0,100,0.00,,,0.50,0.000000,,2013-09-11 10:33:00,
2013-09-11 06:43:00,64.0,64.0,-100.00,SW,236,6.0,11.0,100,0.00,,,0.50,0.000000,,2013-09-11 10:43:00,
2013-09-11 06:53:00,64.0,64.0,-100.00,SW,236,6.0,11.0,100,0.00,,,0.50,0.000000,,2013-09-11 10:53:00,
2013-09-11 07:03:00,64.0,64.0,-100.00,SW,236,6.0,11.0,100,0.00,,,0.50,0.000000,,2013-09-11 11:03:00,
2013-09-11 07:22:00,65.0,65.0,-100.00,SW,236,6.0,10.0,99,0.00,,,-99.99,0.000000,,2013-09-11 11:22:00,
2013-09-11 07:33:00,65.0,65.0,-100.00,SW,236,6.0,10.0,99,0.00,,,-99.99,0.000000,,2013-09-11 11:33:00,
2013-09-11 07:42:00,65.0,65.0,-100.00,SW,236,6.0,10.0,99,0.00,,,-99.99,0.000000,,2013-09-11 11:42:00,
2013-09-11 07:52:00,65.0,65.0,-100.00,SW,236,6.0,10.0,99,0.00,,,-99.99,0.000000,,2013-09-11 11:52:00,
2013-09-11 08:01:00,65.0,65.0,-100.00,SW,236,6.0,10.0,99,0.00,,,-99.99,0.000000,,2013-09-11 12:01:00,
2013-09-11 08:42:00,64.0,63.0,-100.00,SW,236,7.0,14.0,98,0.00,,,-99.99,13.000000,,2013-09-11 12:42:00,
2013-09-11 08:52:00,64.0,63.0,-100.00,SW,236,7.0,14.0,98,0.00,,,-99.99,13.000000,,2013-09-11 12:52:00,
2013-09-11 09:02:00,64.0,63.0,-100.00,SW,236,7.0,14.0,98,0.00,,,-99.99,13.000000,,2013-09-11 13:02:00,
2013-09-11 09:42:00,65.0,64.0,-100.00,West,260,7.0,12.0,97,0.00,,,-99.99,68.000000,,2013-09-11 13:42:00,
2013-09-11 09:52:00,65.0,64.0,-100.00,West,260,7.0,12.0,97,0.00,,,-99.99,68.000000,,2013-09-11 13:52:00,
2013-09-11 10:02:00,65.0,64.0,-100.00,West,260,7.0,12.0,97,0.00,,,-99.99,68.000000,,2013-09-11 14:02:00,
2013-09-11 10:22:00,66.0,64.0,-100.00,West,271,6.0,12.0,94,0.00,,,0.50,107.000000,,2013-09-11 14:22:00,
2013-09-11 10:32:00,66.0,64.0,-100.00,West,271,6.0,12.0,94,0.00,,,0.50,107.000000,,2013-09-11 14:32:00,
2013-09-11 10:42:00,66.0,64.0,-100.00,West,271,6.0,12.0,94,0.00,,,0.50,107.000000,,2013-09-11 14:42:00,
2013-09-11 10:52:00,66.0,64.0,-100.00,West,271,6.0,12.0,94,0.00,,,0.50,107.000000,,2013-09-11 14:52:00,
2013-09-11 11:02:00,66.0,64.0,-100.00,West,271,6.0,12.0,94,0.00,,,0.50,107.000000,,2013-09-11 15:02:00,
2013-09-11 11:43:00,65.0,63.0,-100.00,WNW,284,4.0,8.0,94,0.00,,,0.50,100.000000,,2013-09-11 15:43:00,
2013-09-11 11:54:00,65.0,63.0,-100.00,WNW,284,4.0,8.0,94,0.00,,,0.50,100.000000,,2013-09-11 15:54:00,
2013-09-11 12:03:00,65.0,63.0,-100.00,WNW,284,4.0,8.0,94,0.00,,,0.50,100.000000,,2013-09-11 16:03:00,
2013-09-11 12:23:00,67.0,65.0,-100.00,West,270,5.0,7.0,93,0.00,,,0.50,131.000000,,2013-09-11 16:23:00,
2013-09-11 12:33:00,67.0,65.0,-100.00,West,270,5.0,7.0,93,0.00,,,0.50,131.000000,,2013-09-11 16:33:00,
2013-09-11 12:43:00,67.0,65.0,-100.00,West,270,5.0,7.0,93,0.00,,,0.50,131.000000,,2013-09-11 16:43:00,
2013-09-11 12:53:00,67.0,65.0,-100.00,West,270,5.0,7.0,93,0.00,,,0.50,131.000000,,2013-09-11 16:53:00,
2013-09-11 13:03:00,67.0,65.0,-100.00,West,270,5.0,7.0,93,0.00,,,0.50,131.000000,,2013-09-11 17:03:00,
2013-09-11 13:43:00,72.0,64.0,-100.00,West,261,7.0,12.0,77,0.00,,,0.50,613.000000,,2013-09-11 17:43:00,
2013-09-11 13:52:00,72.0,64.0,-100.00,West,261,7.0,12.0,77,0.00,,,0.50,613.000000,,2013-09-11 17:52:00,
2013-09-11 14:02:00,72.0,64.0,-100.00,West,261,7.0,12.0,77,0.00,,,0.50,613.000000,,2013-09-11 18:02:00,
2013-09-11 14:42:00,74.0,63.0,-100.00,West,276,7.0,13.0,68,0.00,,,0.50,759.000000,,2013-09-11 18:42:00,
2013-09-11 14:52:00,74.0,63.0,-100.00,West,276,7.0,13.0,68,0.00,,,0.50,759.000000,,2013-09-11 18:52:00,
2013-09-11 15:01:00,74.0,63.0,-100.00,West,276,7.0,13.0,68,0.00,,,0.50,759.000000,,2013-09-11 19:01:00,
2013-09-11 15:22:00,71.0,64.0,-100.00,NNE,32,7.0,17.0,79,0.00,,,-99.99,583.000000,,2013-09-11 19:22:00,
2013-09-11 15:32:00,71.0,64.0,-100.00,NNE,32,7.0,17.0,79,0.00,,,-99.99,583.000000,,2013-09-11 19:32:00,
2013-09-11 15:42:00,71.0,64.0,-100.00,NNE,32,7.0,17.0,79,0.00,,,-99.99,583.000000,,2013-09-11 19:42:00,
2013-09-11 15:53:00,71.0,64.0,-100.00,NNE,32,7.0,17.0,79,0.00,,,-99.99,583.000000,,2013-09-11 19:53:00,
2013-09-11 16:02:00,71.0,64.0,-100.00,NNE,32,7.0,17.0,79,0.00,,,-99.99,583.000000,,2013-09-11 20:02:00,
2013-09-11 16:22:00,72.0,63.0,-100.00,NE,41,7.0,12.0,74,0.00,,,0.50,675.000000,,2013-09-11 20:22:00,
2013-09-11 16:32:00,72.0,63.0,-100.00,NE,41,7.0,12.0,74,0.00,,,0.50,675.000000,,2013-09-11 20:32:00,
2013-09-11 16:42:00,72.0,63.0,-100.00,NE,41,7.0,12.0,74,0.00,,,0.50,675.000000,,2013-09-11 20:42:00,
2013-09-11 16:52:00,72.0,63.0,-100.00,NE,41,7.0,12.0,74,0.00,,,0.50,675.000000,,2013-09-11 20:52:00,
2013-09-11 17:02:00,72.0,63.0,-100.00,NE,41,7.0,12.0,74,0.00,,,0.50,675.000000,,2013-09-11 21:02:00,
2013-09-11 17:04:00,72.0,62.0,-100.00,NE,37,6.0,11.0,71,0.00,,,0.50,330.000000,,2013-09-11 21:04:00,
2013-09-11 17:44:00,72.0,62.0,-100.00,NE,37,6.0,11.0,71,0.00,,,0.50,330.000000,,2013-09-11 21:44:00,
2013-09-11 17:54:00,72.0,62.0,-100.00,NE,37,6.0,11.0,71,0.00,,,0.50,330.000000,,2013-09-11 21:54:00,
2013-09-11 18:43:00,70.0,61.0,-100.00,East,82,2.0,7.0,74,0.00,,,0.47,142.000000,,2013-09-11 22:43:00,
2013-09-11 18:54:00,70.0,61.0,-100.00,East,82,2.0,7.0,74,0.00,,,0.47,142.000000,,2013-09-11 22:54:00,
2013-09-11 19:03:00,70.0,61.0,-100.00,East,82,2.0,7.0,74,0.00,,,0.47,142.000000,,2013-09-11 23:03:00,
2013-09-11 19:22:00,68.0,61.0,-100.00,NNE,20,3.0,5.0,77,0.00,,,0.07,69.000000,,2013-09-11 23:22:00,
2013-09-11 19:34:00,68.0,61.0,-100.00,NNE,20,3.0,5.0,77,0.00,,,0.07,69.000000,,2013-09-11 23:34:00,
2013-09-11 19:42:00,68.0,61.0,-100.00,NNE,20,3.0,5.0,77,0.00,,,0.07,69.000000,,2013-09-11 23:42:00,
2013-09-11 19:53:00,68.0,61.0,-100.00,NNE,20,3.0,5.0,77,0.00,,,0.07,69.000000,,2013-09-11 23:53:00,
2013-09-11 20:01:00,68.0,61.0,-100.00,NNE,20,3.0,5.0,77,0.00,,,0.07,69.000000,,2013-09-12 00:01:00,
2013-09-11 20:22:00,66.0,60.0,-100.00,NE,50,1.0,5.0,80,0.00,,,0.04,4.000000,,2013-09-12 00:22:00,
2013-09-11 20:32:00,66.0,60.0,-100.00,NE,50,1.0,5.0,80,0.00,,,0.04,4.000000,,2013-09-12 00:32:00,
2013-09-11 20:42:00,66.0,60.0,-100.00,NE,50,1.0,5.0,80,0.00,,,0.04,4.000000,,2013-09-12 00:42:00,
2013-09-11 20:52:00,66.0,60.0,-100.00,NE,50,1.0,5.0,80,0.00,,,0.04,4.000000,,2013-09-12 00:52:00,
2013-09-11 21:01:00,66.0,60.0,-100.00,NE,50,1.0,5.0,80,0.00,,,0.04,4.000000,,2013-09-12 01:01:00,
2013-09-11 21:23:00,63.0,61.0,-100.00,NNE,21,3.0,5.0,93,0.20,,,0.21,0.000000,,2013-09-12 01:23:00,
2013-09-11 21:32:00,63.0,61.0,-100.00,NNE,21,3.0,5.0,93,0.20,,,0.21,0.000000,,2013-09-12 01:32:00,
2013-09-11 21:42:00,63.0,61.0,-100.00,NNE,21,3.0,5.0,93,0.20,,,0.21,0.000000,,2013-09-12 01:42:00,
2013-09-11 21:52:00,63.0,61.0,-100.00,NNE,21,3.0,5.0,93,0.20,,,0.21,0.000000,,2013-09-12 01:52:00,
2013-09-11 22:03:00,63.0,61.0,-100.00,NNE,21,3.0,5.0,93,0.20,,,0.21,0.000000,,2013-09-12 02:03:00,
2013-09-11 22:52:00,61.0,60.0,-100.00,SSE,166,3.0,11.0,97,0.16,,,0.37,0.000000,,2013-09-12 02:52:00,
2013-09-11 23:02:00,61.0,60.0,-100.00,SSE,166,3.0,11.0,97,0.16,,,0.37,0.000000,,2013-09-12 03:02:00,
2013-09-11 23:04:00,62.0,61.0,-100.00,WSW,252,4.0,9.0,97,0.00,,,0.37,0.000000,,2013-09-12 03:04:00,
2013-09-11 23:45:00,62.0,61.0,-100.00,WSW,252,4.0,9.0,97,0.00,,,0.37,0.000000,,2013-09-12 03:45:00,
2013-09-11 23:55:00,62.0,61.0,-100.00,WSW,252,4.0,9.0,97,0.00,,,0.37,0.000000,,2013-09-12 03:55:00,